Terminal Aerodrome Forecast
Issued by NWS Hastings, NE

Home | Current Version | Previous Version | Text Only | Print | Product List | Glossary On
Versions: 1 2 3 4 5 6 7 8 9 10 11 12 13 14 15 16 17 18 19
000
FTUS45 KGID 020520
TAFEAR
TAF
KEAR 020520Z 0206/0306 35011KT P6SM VCTS SCT020CB OVC060
      TEMPO 0206/0207 3SM -TSRA BR SCT015CB BKN030
     FM020700 02012KT 3SM -TSRA BR SCT015CB BKN030
     FM020900 35012G16KT 5SM -RA BR SCT015 BKN030
     FM021400 34018G26KT P6SM VCSH SCT025 BKN050
     FM022000 32012KT P6SM SCT050
      AMD LTD TO CLD VIS AND WIND=

USA.gov is the U.S. government's official web portal to all federal, state and local government web resources and services.